createdAt,value
2023-03-20T00:00:01.008Z,7.45
2023-03-20T00:02:27.639Z,6.43
2023-03-20T00:04:54.169Z,5.97
2023-03-20T00:07:20.809Z,5.72
2023-03-20T00:09:47.941Z,5.93
2023-03-20T00:12:15.845Z,7.13
2023-03-20T00:14:42.432Z,5.90
2023-03-20T00:17:18.253Z,8.15
2023-03-20T00:19:44.829Z,5.88
2023-03-20T00:22:11.320Z,8.38
2023-03-20T00:24:37.942Z,7.47
2023-03-20T00:27:06.023Z,5.28
2023-03-20T00:29:32.946Z,6.63
2023-03-20T00:31:59.609Z,6.55
2023-03-20T00:34:29.118Z,6.30
2023-03-20T00:36:56.415Z,6.60
2023-03-20T00:39:23.871Z,7.47
2023-03-20T00:41:53.279Z,6.32
2023-03-20T00:44:19.866Z,6.85
2023-03-20T00:46:48.120Z,6.22
2023-03-20T00:49:14.804Z,6.10
2023-03-20T00:51:42.488Z,5.47
2023-03-20T00:54:16.802Z,10.48
2023-03-20T00:56:45.941Z,6.20
2023-03-20T00:59:18.120Z,5.47
2023-03-20T01:01:45.182Z,5.75
2023-03-20T01:04:13.941Z,6.28
2023-03-20T01:06:40.540Z,5.28
2023-03-20T01:09:07.100Z,6.95
2023-03-20T01:11:34.060Z,5.25
2023-03-20T01:14:00.819Z,6.20
2023-03-20T01:16:27.443Z,6.43
2023-03-20T01:18:54.079Z,5.60
2023-03-20T01:21:20.921Z,7.38
2023-03-20T01:23:48.099Z,6.85
2023-03-20T01:26:23.890Z,5.00
2023-03-20T01:28:50.905Z,6.32
2023-03-20T01:31:17.957Z,5.68
2023-03-20T01:33:45.091Z,5.93
2023-03-20T01:36:13.052Z,5.28
2023-03-20T01:38:40.436Z,5.90
2023-03-20T01:41:08.532Z,6.03
2023-03-20T01:43:36.005Z,6.10
2023-03-20T01:46:02.674Z,5.70
2023-03-20T01:48:48.167Z,7.35
2023-03-20T01:51:14.686Z,7.05
2023-03-20T01:53:41.379Z,7.50
2023-03-20T01:56:08.579Z,5.45
2023-03-20T01:58:37.501Z,6.20
2023-03-20T02:01:04.849Z,4.72
2023-03-20T02:03:32.328Z,6.07
2023-03-20T02:05:59.299Z,5.03
2023-03-20T02:08:32.632Z,5.40
2023-03-20T02:11:00.941Z,12.05
2023-03-20T02:13:28.902Z,9.10
2023-03-20T02:15:55.460Z,3.72
2023-03-20T02:18:22.060Z,8.50
2023-03-20T02:21:14.784Z,6.00
2023-03-20T02:23:50.319Z,6.15
2023-03-20T02:26:44.407Z,6.32
2023-03-20T02:29:29.645Z,7.22
2023-03-20T02:32:16.536Z,7.28
2023-03-20T02:35:01.583Z,5.65
2023-03-20T02:37:40.689Z,5.70
2023-03-20T02:40:08.873Z,4.22
2023-03-20T02:42:40.832Z,5.50
2023-03-20T02:45:07.430Z,5.70
2023-03-20T02:47:54.337Z,5.18
2023-03-20T02:50:23.954Z,5.47
2023-03-20T02:52:59.589Z,5.90
2023-03-20T02:55:33.964Z,6.05
2023-03-20T02:58:18.310Z,5.05
2023-03-20T03:00:56.678Z,6.30
2023-03-20T03:03:27.712Z,6.63
2023-03-20T03:05:54.312Z,5.65
2023-03-20T03:08:23.743Z,6.82
2023-03-20T03:10:53.522Z,6.82
2023-03-20T03:13:23.220Z,5.53
2023-03-20T03:15:52.452Z,5.72
2023-03-20T03:18:20.240Z,4.47
2023-03-20T03:20:48.284Z,5.07
2023-03-20T03:23:19.220Z,5.43
2023-03-20T03:25:46.474Z,6.82
2023-03-20T03:28:22.934Z,6.57
2023-03-20T03:30:50.910Z,3.97
2023-03-20T03:33:31.093Z,4.80
2023-03-20T03:36:11.951Z,6.20
2023-03-20T03:38:44.968Z,6.28
2023-03-20T03:41:24.497Z,5.90
2023-03-20T03:44:00.263Z,6.40
2023-03-20T03:46:26.960Z,6.03
2023-03-20T03:48:56.355Z,5.63
2023-03-20T03:51:28.448Z,5.20
2023-03-20T03:54:00.912Z,7.32
2023-03-20T03:56:29.271Z,5.28
2023-03-20T03:58:58.416Z,4.45
2023-03-20T04:01:27.366Z,6.85
2023-03-20T04:03:57.127Z,5.45
2023-03-20T04:06:26.028Z,6.03
2023-03-20T04:08:52.676Z,5.28
2023-03-20T04:11:20.672Z,4.90
2023-03-20T04:13:48.046Z,5.45
2023-03-20T04:16:15.359Z,4.85
2023-03-20T04:18:42.031Z,6.40
2023-03-20T04:21:09.088Z,4.88
2023-03-20T04:23:35.812Z,5.03
2023-03-20T04:26:02.996Z,5.38
2023-03-20T04:28:29.644Z,4.90
2023-03-20T04:30:57.314Z,4.97
2023-03-20T04:33:24.792Z,4.47
2023-03-20T04:35:51.927Z,5.70
2023-03-20T04:38:19.017Z,6.30
2023-03-20T04:40:46.803Z,4.68
2023-03-20T04:43:13.969Z,3.03
2023-03-20T04:45:40.753Z,4.97
2023-03-20T04:48:07.388Z,4.32
2023-03-20T04:50:34.005Z,3.65
2023-03-20T04:53:00.525Z,6.72
2023-03-20T04:55:27.175Z,6.82
2023-03-20T04:57:53.819Z,4.68
2023-03-20T05:00:21.421Z,4.63
2023-03-20T05:02:48.161Z,4.78
2023-03-20T05:05:14.829Z,3.63
2023-03-20T05:07:41.855Z,3.63
2023-03-20T05:10:08.814Z,4.88
2023-03-20T05:12:35.442Z,4.75
2023-03-20T05:15:02.139Z,5.68
2023-03-20T05:17:28.762Z,4.93
2023-03-20T05:19:55.371Z,4.53
2023-03-20T05:22:22.006Z,4.47
2023-03-20T05:24:48.651Z,4.88
2023-03-20T05:27:16.391Z,5.85
2023-03-20T05:29:42.932Z,4.18
2023-03-20T05:32:09.569Z,4.03
2023-03-20T05:34:36.160Z,4.03
2023-03-20T05:37:02.777Z,5.05
2023-03-20T05:39:29.286Z,4.53
2023-03-20T05:41:56.153Z,4.18
2023-03-20T05:44:22.680Z,4.75
2023-03-20T05:46:49.166Z,4.60
2023-03-20T05:49:15.888Z,6.35
2023-03-20T05:51:42.438Z,5.13
2023-03-20T05:54:08.995Z,5.22
2023-03-20T05:56:35.638Z,3.90
2023-03-20T05:59:02.814Z,4.03
2023-03-20T06:01:29.420Z,4.15
2023-03-20T06:03:56.056Z,4.53
2023-03-20T06:06:22.634Z,4.88
2023-03-20T06:08:49.219Z,4.05
2023-03-20T06:11:16.071Z,4.47
2023-03-20T06:13:42.733Z,4.40
2023-03-20T06:16:09.544Z,4.82
2023-03-20T06:18:36.182Z,4.22
2023-03-20T06:21:02.868Z,4.20
2023-03-20T06:23:29.460Z,6.93
2023-03-20T06:25:56.227Z,5.70
2023-03-20T06:28:22.943Z,4.82
2023-03-20T06:30:51.891Z,4.88
2023-03-20T06:33:18.525Z,4.68
2023-03-20T06:35:48.353Z,3.97
2023-03-20T06:38:15.067Z,6.05
2023-03-20T06:40:41.883Z,8.95
2023-03-20T06:43:08.527Z,4.03
2023-03-20T06:45:35.272Z,3.90
2023-03-20T06:48:01.992Z,4.70
2023-03-20T06:50:28.592Z,6.95
2023-03-20T06:52:55.552Z,3.85
2023-03-20T06:55:22.061Z,4.00
2023-03-20T06:57:48.693Z,4.60
2023-03-20T07:00:15.519Z,5.13
2023-03-20T07:02:42.015Z,7.47
2023-03-20T07:05:09.097Z,3.83
2023-03-20T07:07:36.125Z,4.57
2023-03-20T07:10:05.132Z,4.18
2023-03-20T07:12:31.785Z,4.78
2023-03-20T07:14:58.316Z,4.15
2023-03-20T07:17:24.788Z,4.15
2023-03-20T07:19:51.848Z,3.53
2023-03-20T07:22:21.684Z,5.25
2023-03-20T07:24:48.236Z,4.72
2023-03-20T07:27:14.852Z,4.22
2023-03-20T07:29:41.382Z,4.93
2023-03-20T07:32:08.175Z,4.30
2023-03-20T07:34:34.657Z,4.45
2023-03-20T07:37:01.462Z,7.68
2023-03-20T07:39:28.089Z,5.07
2023-03-20T07:41:54.578Z,4.32
2023-03-20T07:44:21.206Z,4.75
2023-03-20T07:46:47.820Z,3.97
2023-03-20T07:49:14.829Z,4.00
2023-03-20T07:51:41.750Z,4.15
2023-03-20T07:54:08.208Z,4.75
2023-03-20T07:56:34.789Z,4.95
2023-03-20T07:59:01.289Z,7.45
2023-03-20T08:01:28.381Z,5.00
2023-03-20T08:03:55.127Z,7.35
2023-03-20T08:06:21.715Z,5.75
2023-03-20T08:08:52.012Z,7.22
2023-03-20T08:11:19.817Z,6.55
2023-03-20T08:13:46.415Z,11.15
2023-03-20T08:16:13.221Z,4.35
2023-03-20T08:18:39.759Z,3.88
2023-03-20T08:21:06.796Z,4.85
2023-03-20T08:23:33.581Z,4.10
2023-03-20T08:26:00.238Z,4.15
2023-03-20T08:28:45.779Z,5.70
2023-03-20T08:31:13.396Z,5.90
2023-03-20T08:33:40.236Z,5.40
2023-03-20T08:36:06.966Z,5.82
2023-03-20T08:38:33.519Z,4.03
2023-03-20T08:41:00.088Z,3.15
2023-03-20T08:43:27.358Z,7.40
2023-03-20T08:45:54.308Z,5.47
2023-03-20T08:48:21.223Z,5.07
2023-03-20T08:50:48.076Z,4.97
2023-03-20T08:53:14.762Z,5.75
2023-03-20T08:55:41.871Z,5.53
2023-03-20T08:58:08.691Z,3.42
2023-03-20T09:00:35.231Z,3.95
2023-03-20T09:03:01.777Z,3.67
2023-03-20T09:05:28.420Z,4.88
2023-03-20T09:07:54.979Z,4.38
2023-03-20T09:10:21.709Z,4.53
2023-03-20T09:12:48.220Z,4.13
2023-03-20T09:15:14.782Z,2.42
2023-03-20T09:17:41.316Z,3.42
2023-03-20T09:20:08.718Z,3.90
2023-03-20T09:22:35.216Z,3.00
2023-03-20T09:25:02.263Z,4.28
2023-03-20T09:27:28.867Z,4.63
2023-03-20T09:29:55.422Z,4.10
2023-03-20T09:32:21.951Z,6.72
2023-03-20T09:34:48.540Z,3.58
2023-03-20T09:37:15.121Z,4.03
2023-03-20T09:39:41.779Z,3.95
2023-03-20T09:42:27.119Z,3.25
2023-03-20T09:45:17.307Z,2.28
2023-03-20T09:47:50.516Z,3.63
2023-03-20T09:50:26.365Z,3.20
2023-03-20T09:53:02.841Z,3.63
2023-03-20T09:55:37.363Z,5.38
2023-03-20T09:58:12.488Z,2.40
2023-03-20T10:00:40.747Z,3.05
2023-03-20T10:03:26.682Z,5.82
2023-03-20T10:05:59.779Z,3.75
2023-03-20T10:08:28.711Z,5.20
2023-03-20T10:11:16.279Z,6.20
2023-03-20T10:13:59.263Z,2.67
2023-03-20T10:16:45.266Z,4.53
2023-03-20T10:19:11.768Z,6.18
2023-03-20T10:21:42.686Z,4.60
2023-03-20T10:24:19.818Z,2.95
2023-03-20T10:26:50.356Z,4.85
2023-03-20T10:29:37.589Z,3.88
2023-03-20T10:32:17.333Z,2.90
2023-03-20T10:34:50.503Z,4.50
2023-03-20T10:37:22.292Z,4.55
2023-03-20T10:39:50.549Z,19.63
2023-03-20T10:42:23.827Z,10.45
2023-03-20T10:44:54.549Z,5.72
2023-03-20T10:47:23.579Z,4.85
2023-03-20T10:49:53.880Z,4.75
2023-03-20T10:52:27.111Z,4.07
2023-03-20T10:54:56.625Z,5.10
2023-03-20T10:57:27.765Z,8.05
2023-03-20T10:59:57.627Z,9.32
2023-03-20T11:02:33.239Z,10.95
2023-03-20T11:05:18.562Z,24.08
2023-03-20T11:07:46.553Z,15.13
2023-03-20T11:10:14.332Z,9.35
2023-03-20T11:12:42.533Z,6.15
2023-03-20T11:15:15.329Z,7.38
2023-03-20T11:17:42.290Z,5.70
2023-03-20T11:20:11.094Z,11.10
2023-03-20T11:22:38.002Z,8.63
2023-03-20T11:25:05.043Z,6.85
2023-03-20T11:27:35.961Z,4.22
2023-03-20T11:30:05.286Z,7.07
2023-03-20T11:32:31.764Z,5.68
2023-03-20T11:35:09.830Z,2.58
2023-03-20T11:37:36.659Z,6.20
2023-03-20T11:40:29.174Z,3.83
2023-03-20T11:42:57.238Z,4.03
2023-03-20T11:45:24.082Z,5.72
2023-03-20T11:47:51.946Z,3.42
2023-03-20T11:50:25.367Z,3.75
2023-03-20T11:52:51.982Z,4.18
2023-03-20T11:55:38.859Z,4.32
2023-03-20T11:58:11.819Z,8.95
2023-03-20T12:00:39.650Z,4.18
2023-03-20T12:03:26.054Z,2.28
2023-03-20T12:05:59.700Z,3.47
2023-03-20T12:08:27.278Z,6.90
2023-03-20T12:11:02.082Z,2.80
2023-03-20T12:13:33.842Z,1.90
2023-03-20T12:16:05.927Z,3.60
2023-03-20T12:18:39.091Z,5.35
2023-03-20T12:21:24.080Z,4.40
2023-03-20T12:23:56.590Z,1.98
2023-03-20T12:26:26.934Z,7.40
2023-03-20T12:29:00.491Z,1.73
2023-03-20T12:31:27.429Z,3.42
2023-03-20T12:34:01.267Z,4.57
2023-03-20T12:36:36.098Z,1.70
2023-03-20T12:39:04.852Z,1.67
2023-03-20T12:41:31.342Z,2.10
2023-03-20T12:44:19.913Z,1.85
2023-03-20T12:47:09.762Z,3.25
2023-03-20T12:49:52.579Z,2.10
2023-03-20T12:52:23.712Z,1.90
2023-03-20T12:54:56.281Z,2.03
2023-03-20T12:57:39.286Z,3.53
2023-03-20T13:00:05.804Z,3.25
2023-03-20T13:02:33.626Z,3.15
2023-03-20T13:05:17.264Z,4.55
2023-03-20T13:07:49.685Z,2.10
2023-03-20T13:10:23.584Z,2.08
2023-03-20T13:12:54.155Z,1.75
2023-03-20T13:15:30.470Z,3.45
2023-03-20T13:17:59.980Z,1.45
2023-03-20T13:20:29.754Z,1.70
2023-03-20T13:23:05.232Z,2.35
2023-03-20T13:25:43.657Z,2.15
2023-03-20T13:28:18.422Z,1.75
2023-03-20T13:30:59.784Z,1.67
2023-03-20T13:33:34.901Z,1.25
2023-03-20T13:36:01.462Z,1.73
2023-03-20T13:38:31.484Z,2.55
2023-03-20T13:41:02.650Z,1.35
2023-03-20T13:43:32.076Z,2.22
2023-03-20T13:46:07.868Z,1.45
2023-03-20T13:48:36.285Z,3.40
2023-03-20T13:51:20.960Z,1.52
2023-03-20T13:53:53.424Z,2.63
2023-03-20T13:56:29.949Z,2.72
2023-03-20T13:59:21.982Z,4.45
2023-03-20T14:01:55.376Z,2.15
2023-03-20T14:04:23.124Z,2.17
2023-03-20T14:06:54.429Z,2.03
2023-03-20T14:09:30.820Z,1.20
2023-03-20T14:12:01.989Z,2.00
2023-03-20T14:14:30.997Z,2.00
2023-03-20T14:17:17.812Z,1.70
2023-03-20T14:19:44.960Z,1.35
2023-03-20T14:22:16.161Z,1.60
2023-03-20T14:24:46.098Z,4.35
2023-03-20T14:27:17.458Z,4.57
2023-03-20T14:29:43.950Z,1.20
2023-03-20T14:32:13.460Z,2.90
2023-03-20T14:34:50.166Z,1.70
2023-03-20T14:37:32.015Z,1.38
2023-03-20T14:40:01.766Z,2.33
2023-03-20T14:42:46.933Z,1.33
2023-03-20T14:45:13.400Z,1.42
2023-03-20T14:47:46.268Z,1.52
2023-03-20T14:50:14.657Z,1.48
2023-03-20T14:52:41.218Z,2.03
2023-03-20T14:55:19.917Z,3.35
2023-03-20T14:57:55.960Z,1.40
2023-03-20T15:00:24.966Z,1.27
2023-03-20T15:02:53.346Z,1.42
2023-03-20T15:05:29.459Z,1.42
2023-03-20T15:08:03.507Z,1.38
2023-03-20T15:10:30.569Z,1.30
2023-03-20T15:12:58.153Z,2.47
2023-03-20T15:15:28.919Z,1.30
2023-03-20T15:17:55.697Z,1.55
2023-03-20T15:20:23.758Z,2.10
2023-03-20T15:22:51.195Z,2.25
2023-03-20T15:25:18.664Z,1.50
2023-03-20T15:27:45.641Z,1.88
2023-03-20T15:30:15.168Z,2.40
2023-03-20T15:32:43.643Z,1.63
2023-03-20T15:35:12.390Z,3.33
2023-03-20T15:37:38.968Z,12.02
2023-03-20T15:40:22.166Z,1.42
2023-03-20T15:42:58.732Z,1.42
2023-03-20T15:45:31.395Z,1.67
2023-03-20T15:48:14.765Z,6.68
2023-03-20T15:50:43.619Z,5.00
2023-03-20T15:53:15.460Z,4.05
2023-03-20T15:55:41.999Z,3.47
2023-03-20T15:58:08.569Z,1.75
2023-03-20T16:00:39.884Z,1.92
2023-03-20T16:03:07.858Z,1.60
2023-03-20T16:05:35.330Z,14.50
2023-03-20T16:08:15.774Z,2.80
2023-03-20T16:10:43.735Z,1.50
2023-03-20T16:13:13.277Z,1.50
2023-03-20T16:15:40.199Z,2.40
2023-03-20T16:18:07.334Z,1.98
2023-03-20T16:20:36.797Z,2.92
2023-03-20T16:23:06.080Z,4.82
2023-03-20T16:25:34.109Z,2.13
2023-03-20T16:28:00.783Z,1.60
2023-03-20T16:30:30.761Z,1.95
2023-03-20T16:33:02.133Z,3.75
2023-03-20T16:35:39.249Z,2.15
2023-03-20T16:38:26.196Z,1.45
2023-03-20T16:41:11.498Z,4.70
2023-03-20T16:43:38.519Z,1.50
2023-03-20T16:46:06.538Z,2.85
2023-03-20T16:48:33.997Z,1.23
2023-03-20T16:51:06.589Z,2.25
2023-03-20T16:53:37.575Z,2.30
2023-03-20T16:56:05.317Z,1.35
2023-03-20T16:58:32.941Z,3.60
2023-03-20T17:00:59.536Z,1.30
2023-03-20T17:03:28.172Z,2.15
2023-03-20T17:05:59.619Z,2.13
2023-03-20T17:08:28.228Z,2.38
2023-03-20T17:10:56.409Z,2.28
2023-03-20T17:13:22.958Z,1.77
2023-03-20T17:15:49.894Z,3.45
2023-03-20T17:18:16.435Z,1.35
2023-03-20T17:20:43.500Z,1.70
2023-03-20T17:23:14.088Z,1.83
2023-03-20T17:25:40.660Z,1.52
2023-03-20T17:28:07.226Z,3.20
2023-03-20T17:30:33.730Z,2.55
2023-03-20T17:33:00.486Z,1.40
2023-03-20T17:35:27.082Z,4.25
2023-03-20T17:37:53.726Z,1.27
2023-03-20T17:40:21.924Z,3.17
2023-03-20T17:42:48.812Z,2.05
2023-03-20T17:45:16.989Z,1.77
2023-03-20T17:47:45.410Z,1.33
2023-03-20T17:50:26.922Z,2.17
2023-03-20T17:52:54.259Z,1.83
2023-03-20T17:55:20.784Z,1.90
2023-03-20T17:57:48.656Z,1.67
2023-03-20T18:00:17.930Z,1.23
2023-03-20T18:02:44.484Z,1.30
2023-03-20T18:05:11.219Z,1.38
2023-03-20T18:07:38.303Z,1.48
2023-03-20T18:10:05.635Z,1.20
2023-03-20T18:12:34.520Z,1.50
2023-03-20T18:15:01.458Z,1.30
2023-03-20T18:17:27.981Z,1.38
2023-03-20T18:19:54.529Z,1.35
2023-03-20T18:22:21.044Z,1.45
2023-03-20T18:24:47.698Z,1.73
2023-03-20T18:27:14.202Z,1.50
2023-03-20T18:29:40.907Z,1.20
2023-03-20T18:32:07.560Z,2.97
2023-03-20T18:34:34.123Z,3.60
2023-03-20T18:37:00.800Z,1.58
2023-03-20T18:39:27.587Z,2.08
2023-03-20T18:41:54.178Z,1.55
2023-03-20T18:44:20.738Z,1.50
2023-03-20T18:46:47.454Z,2.17
2023-03-20T18:49:15.451Z,1.85
2023-03-20T18:51:42.122Z,1.45
2023-03-20T18:54:08.841Z,1.83
2023-03-20T18:56:37.733Z,1.55
2023-03-20T18:59:08.172Z,1.55
2023-03-20T19:01:35.259Z,1.27
2023-03-20T19:04:01.999Z,1.67
2023-03-20T19:06:30.205Z,0.80
2023-03-20T19:08:56.707Z,1.35
2023-03-20T19:11:23.184Z,2.17
2023-03-20T19:13:51.312Z,1.73
2023-03-20T19:16:38.376Z,1.65
2023-03-20T19:19:05.848Z,1.30
2023-03-20T19:21:33.580Z,1.38
2023-03-20T19:24:01.311Z,1.50
2023-03-20T19:26:28.973Z,1.33
2023-03-20T19:28:56.348Z,2.42
2023-03-20T19:31:23.324Z,2.22
2023-03-20T19:33:50.784Z,1.52
2023-03-20T19:36:24.082Z,3.85
2023-03-20T19:38:51.288Z,2.03
2023-03-20T19:41:19.919Z,3.05
2023-03-20T19:43:53.141Z,2.53
2023-03-20T19:46:39.782Z,1.52
2023-03-20T19:49:19.044Z,3.65
2023-03-20T19:51:46.188Z,7.70
2023-03-20T19:54:12.760Z,5.78
2023-03-20T19:56:39.312Z,4.47
2023-03-20T19:59:06.038Z,2.60
2023-03-20T20:01:32.725Z,7.57
2023-03-20T20:03:59.293Z,13.77
2023-03-20T20:06:31.336Z,7.07
2023-03-20T20:08:58.578Z,7.15
2023-03-20T20:11:25.458Z,6.03
2023-03-20T20:14:09.360Z,8.10
2023-03-20T20:16:37.595Z,3.65
2023-03-20T20:19:04.559Z,4.63
2023-03-20T20:24:17.679Z,4.85
2023-03-20T20:26:53.753Z,4.80
2023-03-20T20:29:22.064Z,6.90
2023-03-20T20:31:48.679Z,3.33
2023-03-20T20:35:14.924Z,6.13
2023-03-20T20:37:47.513Z,2.83
2023-03-20T20:39:48.295Z,3.13
2023-03-20T20:42:15.718Z,3.85
2023-03-20T20:44:43.325Z,3.15
2023-03-20T20:47:10.620Z,3.85
2023-03-20T20:49:37.222Z,3.05
2023-03-20T20:52:03.836Z,2.22
2023-03-20T20:54:30.378Z,19.00
2023-03-20T20:56:56.896Z,0.15
2023-03-20T20:59:23.556Z,0.10
2023-03-20T21:01:50.958Z,0.10
2023-03-20T21:04:17.879Z,0.10
2023-03-20T21:07:08.254Z,0.10
2023-03-20T21:09:31.045Z,0.10
2023-03-20T21:11:57.810Z,0.10
2023-03-20T21:14:24.386Z,0.10
2023-03-20T21:16:50.923Z,0.10
2023-03-20T21:19:17.795Z,0.10
2023-03-20T21:21:44.728Z,0.10
2023-03-20T21:24:30.883Z,0.10
2023-03-20T21:26:58.919Z,0.10
2023-03-20T21:29:25.892Z,0.10
2023-03-20T21:31:52.816Z,0.10
2023-03-20T21:34:19.374Z,0.10
2023-03-20T21:36:49.175Z,0.13
2023-03-20T21:39:16.732Z,0.10
2023-03-20T21:41:43.260Z,0.10
2023-03-20T21:44:16.745Z,0.10
2023-03-20T21:47:55.826Z,0.10
2023-03-20T21:50:28.831Z,0.10
2023-03-20T21:56:09.265Z,0.10
2023-03-20T22:03:51.996Z,0.10
2023-03-20T22:07:13.147Z,0.15
2023-03-20T22:15:28.773Z,0.10
2023-03-20T22:34:46.555Z,0.10
2023-03-20T22:45:10.138Z,0.15
2023-03-20T22:47:37.339Z,0.10
2023-03-20T22:50:04.355Z,0.10
2023-03-20T22:52:47.630Z,0.10
2023-03-20T22:55:15.830Z,0.10
2023-03-20T22:57:50.184Z,0.10
2023-03-20T23:00:26.502Z,0.10
2023-03-20T23:02:57.227Z,0.10
2023-03-20T23:05:27.142Z,0.10
2023-03-20T23:07:53.689Z,0.10
2023-03-20T23:10:20.703Z,0.10
2023-03-20T23:12:47.321Z,0.10
2023-03-20T23:15:13.838Z,0.20
2023-03-20T23:17:40.538Z,0.10
2023-03-20T23:20:12.630Z,0.10
2023-03-20T23:22:44.341Z,0.10
2023-03-20T23:25:20.934Z,0.10
2023-03-20T23:27:53.852Z,0.10
2023-03-20T23:30:20.743Z,0.10
2023-03-20T23:32:48.298Z,0.10
2023-03-20T23:35:14.834Z,0.10
2023-03-20T23:37:41.460Z,0.20
2023-03-20T23:40:08.333Z,0.20
2023-03-20T23:42:34.867Z,0.10
2023-03-20T23:45:13.257Z,0.10
2023-03-20T23:47:45.152Z,0.20
2023-03-20T23:50:20.748Z,0.10
2023-03-20T23:53:03.431Z,0.10
2023-03-20T23:55:30.508Z,0.10
2023-03-20T23:57:57.127Z,0.10
